Aviation Digital Data Service (ADDS)

Output produced by METARs form (0451 UTC 23 February 2017)
found at http://aviationweather.gov/adds/metars/
 
KLYH 230126Z 2301/2324 VRB03KT 1/4SM FG OVC002 
     TEMPO 2301/2304 1SM BR BKN003 
     FM231500 22004KT P6SM SCT035 
     FM232300 18004KT P6SM BKN110